Penang/Bayan Lepas, Malaysia
Current Conditions -  °F | °C
As of 1:30 AM on Saturday 22 Nov 2014 (Local Time) from WMKP Reporting Station
Broken Clouds Broken Clouds  
Wind Chill: 81°   Ceiling: 27000
Heat Index: 87°   Visibility: 5mi
Dew Point: 77°   Wind: 3mph
Humidity: 89%   Direction: 10°N
Pressure: 29.83"   Gusts: NA
Location:  5.29°N, 100.28°E
Report Text: WMKP 211730Z 01003KT 8000 FEW025 SCT140 BKN270 27/25 Q1010 NOSIG
Loading
Personal Weather Stations






























Interactive Weather Map New forecast layout! Learn more

10-Day Weather Forecast

Advertisements
Track Severe Weather on mobile